| time (UTC) | temp C | wind direction | speed KPH | gust KPH | rain 1hr cm | rain 24hr cm | rain mn cm | humidity % | barometer mb |
| 20260507203534 | 11 | 0 | 0.0 | 1.6 | 0.20 | 1.27 | 1.27 | 97 | 1010.9 |
| 20260507203047 | 11 | 0 | 0.0 | 1.6 | 0.20 | 1.27 | 1.27 | 97 | 1011.0 |
| 20260507202533 | 11 | 0 | 0.0 | 1.6 | 0.20 | 1.27 | 1.27 | 97 | 1010.8 |
| 20260507202032 | 11 | 0 | 0.0 | 1.6 | 0.20 | 1.27 | 1.27 | 97 | 1010.6 |
| 20260507201545 | 11 | 0 | 0.0 | 1.6 | 0.20 | 1.27 | 1.27 | 97 | 1010.6 |
| 20260507201033 | 11 | 0 | 0.0 | 1.6 | 0.20 | 1.27 | 1.27 | 96 | 1010.4 |
| 20260507200532 | 11 | 0 | 0.0 | 1.6 | 0.13 | 1.19 | 1.19 | 96 | 1010.4 |
| 20260507200049 | 11 | 0 | 0.0 | 1.6 | 0.03 | 1.07 | 1.07 | 96 | 1010.4 |
| 20260507195532 | 11 | 0 | 0.0 | 1.6 | 0.03 | 1.07 | 1.07 | 97 | 1010.3 |
| 20260507195032 | 11 | 0 | 0.0 | 1.6 | 0.05 | 1.07 | 1.07 | 97 | 1010.3 |
| 20260507194540 | 11 | 0 | 0.0 | 3.2 | 0.05 | 1.07 | 1.07 | 97 | 1010.3 |
| 20260507194032 | 11 | 0 | 0.0 | 3.2 | 0.05 | 1.07 | 1.07 | 97 | 1010.4 |
| 20260507193534 | 11 | 0 | 0.0 | 6.4 | 0.05 | 1.07 | 1.07 | 97 | 1010.6 |
| 20260507193052 | 11 | 0 | 0.0 | 6.4 | 0.05 | 1.07 | 1.07 | 97 | 1010.5 |
| 20260507192532 | 11 | 0 | 0.0 | 3.2 | 0.05 | 1.07 | 1.07 | 97 | 1010.5 |
| 20260507192032 | 12 | 0 | 0.0 | 3.2 | 0.05 | 1.07 | 1.07 | 97 | 1010.5 |
| 20260507191551 | 12 | 285 | 0.0 | 1.6 | 0.05 | 1.07 | 1.07 | 97 | 1010.3 |
| 20260507191032 | 12 | 0 | 0.0 | 1.6 | 0.08 | 1.07 | 1.07 | 98 | 1010.2 |
| 20260507190533 | 12 | 0 | 0.0 | 1.6 | 0.08 | 1.04 | 1.04 | 97 | 1010.4 |
| 20260507190046 | 12 | 0 | 0.0 | 3.2 | 0.08 | 1.04 | 1.04 | 97 | 1010.6 |
| 20260507185534 | 12 | 0 | 0.0 | 3.2 | 0.08 | 1.04 | 1.04 | 97 | 1010.8 |
| 20260507185032 | 12 | 0 | 0.0 | 3.2 | 0.05 | 1.02 | 1.02 | 97 | 1011.0 |
| 20260507184542 | 12 | 0 | 0.0 | 6.4 | 0.05 | 1.02 | 1.02 | 97 | 1010.9 |
| 20260507184032 | 12 | 0 | 0.0 | 6.4 | 0.05 | 1.02 | 1.02 | 97 | 1011.1 |
| 20260507183534 | 12 | 21 | 0.0 | 6.4 | 0.05 | 1.02 | 1.02 | 97 | 1010.9 |
| 20260507183047 | 12 | 0 | 0.0 | 1.6 | 0.05 | 1.02 | 1.02 | 97 | 1011.0 |
| 20260507182535 | 12 | 0 | 0.0 | 1.6 | 0.05 | 1.02 | 1.02 | 97 | 1011.0 |
| 20260507182031 | 12 | 57 | 0.0 | 1.6 | 0.05 | 1.02 | 1.02 | 98 | 1010.9 |
| 20260507181543 | 12 | 0 | 0.0 | 1.6 | 0.05 | 1.02 | 1.02 | 98 | 1010.9 |
| 20260507181034 | 12 | 0 | 0.0 | 1.6 | 0.03 | 0.99 | 0.99 | 97 | 1010.8 |
| 20260507180535 | 11 | 0 | 0.0 | 1.6 | 0.00 | 0.97 | 0.97 | 97 | 1011.0 |
| 20260507180057 | 11 | 0 | 0.0 | 1.6 | 0.00 | 0.97 | 0.97 | 97 | 1010.9 |
| 20260507175534 | 11 | 0 | 0.0 | 1.6 | 0.00 | 0.97 | 0.97 | 97 | 1011.2 |
| 20260507175034 | 11 | 0 | 0.0 | 1.6 | 0.00 | 0.97 | 0.97 | 97 | 1011.3 |
| 20260507174546 | 11 | 0 | 0.0 | 1.6 | 0.00 | 0.97 | 0.97 | 97 | 1011.3 |
| 20260507174033 | 11 | 0 | 0.0 | 4.8 | 0.00 | 0.97 | 0.97 | 97 | 1011.2 |
| 20260507173532 | 11 | 0 | 0.0 | 4.8 | 0.03 | 0.97 | 0.97 | 97 | 1011.2 |
| 20260507173049 | 11 | 0 | 0.0 | 4.8 | 0.05 | 0.97 | 0.97 | 97 | 1010.2 |
| 20260507172536 | 11 | 0 | 0.0 | 4.8 | 0.05 | 0.97 | 0.97 | 97 | 1011.0 |
| 20260507172030 | 11 | 0 | 0.0 | 1.6 | 0.05 | 0.97 | 0.97 | 97 | 1011.4 |
| 20260507171604 | 11 | 0 | 0.0 | 6.4 | 0.05 | 0.97 | 0.97 | 97 | 1011.4 |
| 20260507171034 | 11 | 279 | 0.0 | 6.4 | 0.08 | 0.97 | 0.97 | 96 | 1011.3 |
| 20260507170533 | 11 | 0 | 0.0 | 4.8 | 0.10 | 0.97 | 0.97 | 97 | 1011.2 |
| 20260507170042 | 11 | 286 | 0.0 | 6.4 | 0.10 | 0.97 | 0.97 | 97 | 1011.4 |
| 20260507165532 | 11 | 5 | 0.0 | 6.4 | 0.13 | 0.99 | 0.97 | 97 | 1011.0 |
| 20260507165032 | 12 | 28 | 1.6 | 8.0 | 0.13 | 0.99 | 0.97 | 96 | 1010.9 |
| 20260507164550 | 12 | 352 | 1.6 | 8.0 | 0.13 | 0.99 | 0.97 | 97 | 1011.1 |
| 20260507164032 | 12 | 13 | 1.6 | 8.0 | 0.13 | 0.99 | 0.97 | 97 | 1011.8 |
| 20260507163534 | 12 | 65 | 0.0 | 3.2 | 0.10 | 0.97 | 0.94 | 98 | 1011.8 |
| 20260507163050 | 12 | 0 | 0.0 | 3.2 | 0.10 | 0.94 | 0.91 | 98 | 1011.6 |
| 20260507162532 | 12 | 0 | 0.0 | 4.8 | 0.10 | 0.94 | 0.91 | 98 | 1011.8 |
| 20260507162035 | 12 | 0 | 0.0 | 4.8 | 0.13 | 0.94 | 0.91 | 98 | 1011.8 |
| 20260507161545 | 12 | 325 | 0.0 | 3.2 | 0.10 | 0.91 | 0.89 | 98 | 1011.7 |
| 20260507161032 | 12 | 0 | 0.0 | 3.2 | 0.10 | 0.91 | 0.89 | 98 | 1011.7 |
| 20260507160534 | 12 | 0 | 0.0 | 3.2 | 0.08 | 0.89 | 0.86 | 98 | 1011.5 |
| 20260507160052 | 12 | 237 | 0.0 | 3.2 | 0.08 | 0.89 | 0.86 | 98 | 1011.2 |
| 20260507155531 | 12 | 0 | 0.0 | 3.2 | 0.08 | 0.86 | 0.84 | 97 | 1011.5 |
| 20260507155034 | 12 | 0 | 0.0 | 3.2 | 0.08 | 0.86 | 0.84 | 97 | 1011.6 |
| 20260507154550 | 12 | 0 | 0.0 | 3.2 | 0.08 | 0.86 | 0.84 | 97 | 1011.4 |
| 20260507154033 | 12 | 0 | 0.0 | 3.2 | 0.08 | 0.86 | 0.84 | 97 | 1011.4 |
| 20260507153532 | 12 | 0 | 0.0 | 4.8 | 0.10 | 0.86 | 0.84 | 97 | 1011.4 |
| 20260507153051 | 12 | 13 | 0.0 | 4.8 | 0.13 | 0.84 | 0.81 | 97 | 1011.4 |
| 20260507152535 | 12 | 24 | 0.0 | 4.8 | 0.13 | 0.84 | 0.81 | 97 | 1011.5 |
| 20260507152034 | 12 | 0 | 1.6 | 4.8 | 0.13 | 0.81 | 0.79 | 98 | 1011.7 |
| 20260507151544 | 12 | 0 | 0.0 | 3.2 | 0.13 | 0.81 | 0.79 | 98 | 1011.5 |
| 20260507151032 | 12 | 0 | 0.0 | 3.2 | 0.13 | 0.81 | 0.79 | 98 | 1011.4 |
| 20260507150532 | 12 | 0 | 0.0 | 3.2 | 0.13 | 0.81 | 0.79 | 98 | 1011.4 |
| 20260507150047 | 12 | 63 | 0.0 | 4.8 | 0.13 | 0.81 | 0.79 | 98 | 1011.6 |
| 20260507145532 | 12 | 0 | 0.0 | 4.8 | 0.10 | 0.79 | 0.76 | 98 | 1011.3 |
| 20260507145036 | 12 | 0 | 0.0 | 4.8 | 0.10 | 0.79 | 0.76 | 98 | 1011.1 |
| 20260507144543 | 12 | 0 | 0.0 | 9.7 | 0.10 | 0.79 | 0.76 | 97 | 1010.9 |
| 20260507144032 | 12 | 0 | 0.0 | 9.7 | 0.08 | 0.76 | 0.74 | 97 | 1011.2 |
| 20260507143533 | 13 | 45 | 0.0 | 9.7 | 0.05 | 0.74 | 0.71 | 97 | 1011.0 |
| 20260507143048 | 13 | 26 | 1.6 | 9.7 | 0.03 | 0.71 | 0.69 | 97 | 1011.1 |
| 20260507142533 | 13 | 0 | 0.0 | 9.7 | 0.05 | 0.71 | 0.69 | 97 | 1011.2 |
| 20260507142034 | 13 | 5 | 0.0 | 3.2 | 0.03 | 0.69 | 0.66 | 98 | 1011.4 |
| 20260507141548 | 13 | 0 | 0.0 | 3.2 | 0.05 | 0.69 | 0.66 | 98 | 1011.8 |
| 20260507141032 | 13 | 337 | 0.0 | 3.2 | 0.08 | 0.69 | 0.66 | 98 | 1011.8 |
| 20260507140536 | 13 | 0 | 0.0 | 3.2 | 0.08 | 0.69 | 0.66 | 98 | 1011.8 |
| 20260507140055 | 13 | 64 | 0.0 | 4.8 | 0.08 | 0.69 | 0.66 | 98 | 1011.5 |
| 20260507135532 | 13 | 0 | 0.0 | 4.8 | 0.10 | 0.69 | 0.66 | 98 | 1011.2 |
| 20260507135032 | 13 | 0 | 0.0 | 4.8 | 0.10 | 0.69 | 0.66 | 98 | 1011.1 |
| 20260507134548 | 13 | 336 | 0.0 | 1.6 | 0.10 | 0.69 | 0.66 | 98 | 1010.9 |
| 20260507134031 | 13 | 0 | 0.0 | 4.8 | 0.10 | 0.69 | 0.66 | 98 | 1011.1 |
| 20260507133532 | 13 | 336 | 0.0 | 4.8 | 0.13 | 0.69 | 0.66 | 98 | 1010.8 |
| 20260507133044 | 13 | 334 | 0.0 | 3.2 | 0.13 | 0.69 | 0.66 | 98 | 1010.8 |
| 20260507132533 | 13 | 0 | 0.0 | 3.2 | 0.10 | 0.66 | 0.64 | 98 | 1010.9 |
| 20260507132034 | 13 | 0 | 0.0 | 1.6 | 0.10 | 0.66 | 0.64 | 97 | 1011.2 |
| 20260507131543 | 13 | 0 | 0.0 | 3.2 | 0.05 | 0.61 | 0.58 | 98 | 1011.2 |
| 20260507131034 | 13 | 0 | 0.0 | 3.2 | 0.05 | 0.61 | 0.58 | 98 | 1011.3 |
| 20260507130535 | 13 | 0 | 0.0 | 3.2 | 0.05 | 0.61 | 0.58 | 97 | 1011.2 |
| 20260507130054 | 14 | 0 | 0.0 | 6.4 | 0.05 | 0.61 | 0.58 | 97 | 1011.2 |
| 20260507125532 | 14 | 0 | 0.0 | 6.4 | 0.03 | 0.58 | 0.56 | 97 | 1011.1 |
| 20260507125032 | 14 | 0 | 0.0 | 3.2 | 0.03 | 0.58 | 0.56 | 97 | 1011.2 |
| 20260507124607 | 14 | 0 | 0.0 | 1.6 | 0.05 | 0.58 | 0.56 | 97 | 1011.1 |
| 20260507124034 | 15 | 0 | 0.0 | 3.2 | 0.03 | 0.56 | 0.53 | 97 | 1011.2 |
| 20260507123533 | 15 | 0 | 0.0 | 3.2 | 0.03 | 0.56 | 0.53 | 97 | 1011.1 |
| 20260507123048 | 15 | 0 | 0.0 | 3.2 | 0.03 | 0.56 | 0.53 | 97 | 1011.2 |
| 20260507122533 | 15 | 0 | 0.0 | 3.2 | 0.05 | 0.56 | 0.53 | 97 | 1010.9 |
| 20260507122032 | 15 | 19 | 0.0 | 3.2 | 0.05 | 0.56 | 0.53 | 97 | 1010.8 |
| 20260507121552 | 16 | 0 | 0.0 | 3.2 | 0.08 | 0.56 | 0.53 | 97 | 1010.8 |
| 20260507121032 | 16 | 0 | 0.0 | 3.2 | 0.13 | 0.56 | 0.53 | 97 | 1010.8 |
| 20260507120532 | 17 | 352 | 0.0 | 3.2 | 0.13 | 0.56 | 0.53 | 98 | 1011.3 |
| 20260507120049 | 17 | 352 | 0.0 | 3.2 | 0.18 | 0.56 | 0.53 | 99 | 1011.1 |
| 20260507115533 | 17 | 0 | 0.0 | 0.0 | 0.20 | 0.56 | 0.53 | 99 | 1011.0 |
| 20260507115033 | 17 | 0 | 0.0 | 0.0 | 0.20 | 0.56 | 0.53 | 99 | 1010.7 |
| 20260507114609 | 17 | 0 | 0.0 | 0.0 | 0.18 | 0.53 | 0.51 | 99 | 1010.4 |
| 20260507114034 | 17 | 0 | 0.0 | 0.0 | 0.18 | 0.53 | 0.51 | 99 | 1010.7 |
| 20260507113532 | 17 | 0 | 0.0 | 0.0 | 0.20 | 0.53 | 0.51 | 99 | 1010.5 |
| 20260507113049 | 17 | 0 | 0.0 | 0.0 | 0.20 | 0.53 | 0.51 | 99 | 1010.4 |
| 20260507112531 | 17 | 0 | 0.0 | 0.0 | 0.18 | 0.51 | 0.48 | 99 | 1010.4 |
| 20260507112032 | 17 | 0 | 0.0 | 0.0 | 0.18 | 0.51 | 0.48 | 99 | 1010.7 |
| 20260507111545 | 17 | 0 | 0.0 | 0.0 | 0.15 | 0.48 | 0.46 | 99 | 1010.6 |
| 20260507111035 | 17 | 0 | 0.0 | 0.0 | 0.10 | 0.43 | 0.41 | 99 | 1010.7 |
| 20260507110532 | 17 | 0 | 0.0 | 0.0 | 0.08 | 0.41 | 0.38 | 99 | 1010.6 |
| 20260507110048 | 17 | 0 | 0.0 | 0.0 | 0.05 | 0.38 | 0.36 | 99 | 1010.7 |
| 20260507105531 | 17 | 0 | 0.0 | 0.0 | 0.03 | 0.36 | 0.33 | 99 | 1010.6 |
| 20260507105032 | 17 | 0 | 0.0 | 0.0 | 0.03 | 0.36 | 0.33 | 99 | 1010.6 |
| 20260507104555 | 17 | 0 | 0.0 | 0.0 | 0.03 | 0.36 | 0.33 | 99 | 1010.5 |
| 20260507104031 | 17 | 0 | 0.0 | 0.0 | 0.03 | 0.36 | 0.33 | 99 | 1010.3 |
| 20260507103531 | 17 | 0 | 0.0 | 0.0 | 0.00 | 0.33 | 0.30 | 99 | 1010.3 |
| 20260507103040 | 17 | 0 | 0.0 | 0.0 | 0.03 | 0.33 | 0.30 | 99 | 1010.3 |
| 20260507102530 | 17 | 0 | 0.0 | 0.0 | 0.03 | 0.33 | 0.30 | 99 | 1010.3 |
| 20260507102029 | 17 | 0 | 0.0 | 0.0 | 0.03 | 0.33 | 0.30 | 99 | 1010.6 |
| 20260507101549 | 17 | 0 | 0.0 | 0.0 | 0.05 | 0.33 | 0.30 | 99 | 1010.6 |
| 20260507101034 | 17 | 0 | 0.0 | 0.0 | 0.05 | 0.33 | 0.30 | 99 | 1010.5 |
| 20260507100532 | 17 | 0 | 0.0 | 0.0 | 0.08 | 0.33 | 0.30 | 99 | 1010.4 |
| 20260507100046 | 17 | 0 | 0.0 | 0.0 | 0.10 | 0.33 | 0.30 | 99 | 1010.3 |
| 20260507095533 | 17 | 0 | 0.0 | 0.0 | 0.10 | 0.33 | 0.30 | 99 | 1010.1 |
| 20260507095029 | 17 | 0 | 0.0 | 0.0 | 0.13 | 0.33 | 0.30 | 99 | 1010.0 |
| 20260507094553 | 17 | 0 | 0.0 | 0.0 | 0.13 | 0.33 | 0.30 | 99 | 1010.2 |
| 20260507094029 | 17 | 0 | 0.0 | 1.6 | 0.13 | 0.33 | 0.30 | 99 | 1010.2 |
| 20260507093532 | 17 | 0 | 0.0 | 1.6 | 0.13 | 0.33 | 0.30 | 99 | 1010.1 |
| 20260507093044 | 17 | 0 | 0.0 | 1.6 | 0.10 | 0.30 | 0.28 | 99 | 1010.0 |
| 20260507092532 | 17 | 0 | 0.0 | 0.0 | 0.10 | 0.30 | 0.28 | 99 | 1010.0 |
| 20260507092031 | 17 | 0 | 0.0 | 1.6 | 0.10 | 0.30 | 0.28 | 99 | 1010.0 |
| 20260507091544 | 17 | 0 | 0.0 | 1.6 | 0.08 | 0.28 | 0.25 | 99 | 1010.1 |
| 20260507091030 | 17 | 0 | 0.0 | 1.6 | 0.05 | 0.25 | 0.23 | 99 | 1010.4 |
| 20260507090530 | 17 | 0 | 0.0 | 3.2 | 0.05 | 0.25 | 0.23 | 99 | 1010.3 |
| 20260507090048 | 17 | 0 | 0.0 | 3.2 | 0.05 | 0.23 | 0.20 | 99 | 1010.4 |
| 20260507085532 | 17 | 0 | 0.0 | 3.2 | 0.05 | 0.23 | 0.20 | 99 | 1010.1 |
| 20260507085031 | 18 | 0 | 0.0 | 1.6 | 0.03 | 0.20 | 0.18 | 99 | 1009.9 |
| 20260507084544 | 18 | 0 | 0.0 | 1.6 | 0.03 | 0.20 | 0.18 | 99 | 1009.7 |
| 20260507084036 | 18 | 0 | 0.0 | 1.6 | 0.03 | 0.20 | 0.18 | 99 | 1009.7 |
| 20260507083532 | 18 | 129 | 0.0 | 3.2 | 0.03 | 0.20 | 0.18 | 99 | 1009.6 |
| 20260507083044 | 18 | 0 | 0.0 | 3.2 | 0.03 | 0.20 | 0.18 | 99 | 1009.6 |
| 20260507082532 | 18 | 0 | 0.0 | 3.2 | 0.03 | 0.20 | 0.18 | 99 | 1009.7 |
| 20260507082031 | 18 | 0 | 0.0 | 3.2 | 0.03 | 0.20 | 0.18 | 99 | 1009.5 |
| 20260507081544 | 18 | 0 | 0.0 | 4.8 | 0.03 | 0.20 | 0.18 | 99 | 1009.7 |
| 20260507081032 | 18 | 0 | 0.0 | 4.8 | 0.03 | 0.20 | 0.18 | 99 | 1009.8 |
| 20260507080532 | 18 | 0 | 0.0 | 6.4 | 0.03 | 0.20 | 0.18 | 99 | 1009.9 |
| 20260507080044 | 18 | 0 | 0.0 | 11.3 | 0.00 | 0.18 | 0.15 | 99 | 1010.1 |
| 20260507075533 | 18 | 0 | 0.0 | 11.3 | 0.00 | 0.18 | 0.15 | 99 | 1010.3 |
| 20260507075033 | 18 | 221 | 0.0 | 11.3 | 0.00 | 0.18 | 0.15 | 99 | 1010.3 |
| 20260507074549 | 18 | 269 | 0.0 | 11.3 | 0.00 | 0.18 | 0.15 | 98 | 1010.2 |
| 20260507074031 | 18 | 0 | 1.6 | 11.3 | 0.00 | 0.18 | 0.15 | 98 | 1010.1 |
| 20260507073536 | 18 | 269 | 0.0 | 3.2 | 0.00 | 0.18 | 0.15 | 98 | 1009.9 |
| 20260507073047 | 18 | 0 | 0.0 | 3.2 | 0.00 | 0.18 | 0.15 | 99 | 1010.0 |
| 20260507072533 | 18 | 0 | 0.0 | 3.2 | 0.00 | 0.18 | 0.15 | 99 | 1010.1 |
| 20260507072031 | 18 | 0 | 0.0 | 0.0 | 0.00 | 0.18 | 0.15 | 99 | 1010.1 |
| 20260507071550 | 18 | 0 | 0.0 | 6.4 | 0.00 | 0.18 | 0.15 | 99 | 1010.2 |
| 20260507071032 | 18 | 0 | 0.0 | 6.4 | 0.00 | 0.18 | 0.15 | 99 | 1010.6 |
| 20260507070533 | 18 | 215 | 0.0 | 6.4 | 0.00 | 0.18 | 0.15 | 99 | 1010.8 |
| 20260507070059 | 18 | 0 | 0.0 | 4.8 | 0.00 | 0.18 | 0.15 | 98 | 1010.9 |
| 20260507065532 | 18 | 0 | 0.0 | 1.6 | 0.00 | 0.18 | 0.15 | 98 | 1010.9 |
| 20260507065031 | 18 | 0 | 0.0 | 3.2 | 0.00 | 0.18 | 0.15 | 98 | 1010.8 |
| 20260507064548 | 18 | 0 | 0.0 | 3.2 | 0.00 | 0.18 | 0.15 | 98 | 1010.8 |
| 20260507064033 | 18 | 0 | 0.0 | 3.2 | 0.00 | 0.18 | 0.15 | 98 | 1011.0 |
| 20260507063531 | 18 | 190 | 0.0 | 1.6 | 0.00 | 0.18 | 0.15 | 98 | 1010.9 |
| 20260507063054 | 18 | 262 | 0.0 | 1.6 | 0.00 | 0.18 | 0.15 | 98 | 1010.9 |
| 20260507062531 | 18 | 0 | 0.0 | 3.2 | 0.03 | 0.18 | 0.15 | 98 | 1011.0 |
| 20260507062032 | 18 | 0 | 0.0 | 3.2 | 0.03 | 0.18 | 0.15 | 98 | 1010.9 |
| 20260507061548 | 18 | 0 | 0.0 | 3.2 | 0.05 | 0.18 | 0.15 | 98 | 1011.0 |
| 20260507061031 | 18 | 0 | 0.0 | 1.6 | 0.08 | 0.18 | 0.15 | 98 | 1011.0 |
| 20260507060532 | 18 | 0 | 0.0 | 1.6 | 0.08 | 0.18 | 0.15 | 98 | 1011.0 |
| 20260507060048 | 18 | 0 | 0.0 | 3.2 | 0.10 | 0.18 | 0.15 | 98 | 1010.9 |
| 20260507055532 | 18 | 0 | 0.0 | 3.2 | 0.10 | 0.18 | 0.15 | 98 | 1010.9 |
| 20260507055032 | 18 | 0 | 0.0 | 1.6 | 0.10 | 0.18 | 0.15 | 98 | 1010.8 |
| 20260507054544 | 18 | 0 | 0.0 | 1.6 | 0.10 | 0.18 | 0.15 | 98 | 1010.9 |
| 20260507054032 | 18 | 0 | 0.0 | 1.6 | 0.10 | 0.18 | 0.15 | 98 | 1010.7 |
| 20260507053535 | 18 | 0 | 0.0 | 1.6 | 0.13 | 0.18 | 0.15 | 97 | 1010.5 |
| 20260507053040 | 18 | 0 | 0.0 | 1.6 | 0.13 | 0.18 | 0.15 | 98 | 1010.5 |
| 20260507052531 | 18 | 0 | 0.0 | 3.2 | 0.10 | 0.15 | 0.13 | 97 | 1010.1 |
| 20260507052034 | 18 | 0 | 0.0 | 3.2 | 0.10 | 0.15 | 0.13 | 97 | 1010.7 |
| 20260507051548 | 18 | 0 | 0.0 | 3.2 | 0.08 | 0.13 | 0.10 | 97 | 1011.3 |
| 20260507051031 | 18 | 0 | 0.0 | 3.2 | 0.08 | 0.10 | 0.08 | 97 | 1011.7 |
| 20260507050533 | 18 | 0 | 0.0 | 3.2 | 0.08 | 0.10 | 0.08 | 97 | 1011.9 |
| 20260507050047 | 18 | 0 | 0.0 | 3.2 | 0.05 | 0.08 | 0.05 | 97 | 1012.1 |
| 20260507045531 | 18 | 0 | 0.0 | 1.6 | 0.05 | 0.08 | 0.05 | 97 | 1012.0 |
| 20260507045032 | 18 | 0 | 0.0 | 1.6 | 0.05 | 0.08 | 0.05 | 96 | 1012.0 |
| 20260507044546 | 18 | 0 | 0.0 | 3.2 | 0.05 | 0.08 | 0.05 | 96 | 1012.0 |
| 20260507044032 | 18 | 0 | 0.0 | 3.2 | 0.05 | 0.08 | 0.05 | 96 | 1011.9 |
| 20260507043531 | 18 | 343 | 0.0 | 1.6 | 0.03 | 0.05 | 0.03 | 96 | 1012.0 |
| 20260507043043 | 18 | 0 | 0.0 | 1.6 | 0.03 | 0.05 | 0.03 | 95 | 1012.0 |
| 20260507042533 | 18 | 0 | 0.0 | 1.6 | 0.03 | 0.05 | 0.03 | 95 | 1011.9 |
| 20260507042029 | 18 | 0 | 0.0 | 1.6 | 0.03 | 0.05 | 0.03 | 94 | 1011.9 |
| 20260507041548 | 18 | 0 | 0.0 | 1.6 | 0.03 | 0.05 | 0.03 | 94 | 1011.7 |
| 20260507041029 | 18 | 0 | 0.0 | 0.0 | 0.00 | 0.03 | 0.00 | 94 | 1011.7 |
| 20260507040530 | 18 | 0 | 0.0 | 0.0 | 0.00 | 0.03 | 0.00 | 93 | 1011.7 |
| 20260507040050 | 19 | 0 | 0.0 | 0.0 | 0.00 | 0.03 | 0.00 | 93 | 1011.6 |
| 20260507035531 | 19 | 0 | 0.0 | 0.0 | 0.00 | 0.03 | 0.03 | 92 | 1011.6 |
| 20260507035032 | 19 | 0 | 0.0 | 0.0 | 0.00 | 0.03 | 0.03 | 92 | 1011.6 |
| 20260507034543 | 19 | 0 | 0.0 | 0.0 | 0.00 | 0.03 | 0.03 | 91 | 1011.7 |
| 20260507034032 | 19 | 0 | 0.0 | 0.0 | 0.00 | 0.03 | 0.03 | 90 | 1011.6 |
| 20260507033533 | 19 | 0 | 0.0 | 1.6 | 0.00 | 0.03 | 0.03 | 89 | 1011.7 |
| 20260507033045 | 19 | 0 | 0.0 | 3.2 | 0.00 | 0.03 | 0.03 | 89 | 1011.7 |
| 20260507032534 | 20 | 0 | 0.0 | 3.2 | 0.00 | 0.03 | 0.03 | 89 | 1011.7 |
| 20260507032031 | 20 | 0 | 0.0 | 3.2 | 0.00 | 0.03 | 0.03 | 88 | 1011.7 |
| 20260507031540 | 20 | 348 | 0.0 | 3.2 | 0.00 | 0.03 | 0.03 | 88 | 1011.4 |
| 20260507031033 | 20 | 0 | 0.0 | 3.2 | 0.00 | 0.03 | 0.03 | 88 | 1011.3 |
| 20260507030532 | 19 | 0 | 0.0 | 3.2 | 0.00 | 0.03 | 0.03 | 88 | 1011.4 |
| 20260507030045 | 19 | 0 | 0.0 | 4.8 | 0.00 | 0.03 | 0.03 | 88 | 1011.4 |
| 20260507025529 | 19 | 0 | 0.0 | 4.8 | 0.00 | 0.03 | 0.03 | 88 | 1011.2 |
| 20260507025032 | 19 | 0 | 0.0 | 4.8 | 0.00 | 0.03 | 0.03 | 88 | 1011.2 |
| 20260507024542 | 19 | 0 | 0.0 | 4.8 | 0.00 | 0.03 | 0.03 | 89 | 1011.1 |
| 20260507024032 | 19 | 0 | 0.0 | 4.8 | 0.00 | 0.03 | 0.03 | 89 | 1011.2 |
| 20260507023531 | 19 | 0 | 0.0 | 1.6 | 0.00 | 0.03 | 0.03 | 89 | 1011.3 |
| 20260507023047 | 19 | 0 | 0.0 | 1.6 | 0.00 | 0.03 | 0.03 | 89 | 1011.4 |
| 20260507022530 | 19 | 0 | 0.0 | 0.0 | 0.00 | 0.03 | 0.03 | 89 | 1011.1 |
| 20260507022032 | 19 | 0 | 0.0 | 0.0 | 0.00 | 0.03 | 0.03 | 89 | 1011.1 |
| 20260507021545 | 19 | 0 | 0.0 | 1.6 | 0.00 | 0.03 | 0.03 | 90 | 1011.6 |
| 20260507021034 | 19 | 0 | 0.0 | 1.6 | 0.00 | 0.03 | 0.03 | 90 | 1011.6 |
| 20260507020533 | 18 | 0 | 0.0 | 3.2 | 0.00 | 0.03 | 0.03 | 90 | 1011.8 |
| 20260507020044 | 18 | 0 | 0.0 | 3.2 | 0.00 | 0.03 | 0.03 | 90 | 1011.9 |
| 20260507015533 | 18 | 0 | 0.0 | 1.6 | 0.00 | 0.03 | 0.03 | 89 | 1011.9 |
| 20260507015031 | 19 | 0 | 0.0 | 0.0 | 0.00 | 0.03 | 0.03 | 89 | 1012.0 |
| 20260507014550 | 19 | 0 | 0.0 | 0.0 | 0.00 | 0.03 | 0.03 | 88 | 1011.9 |
| 20260507014029 | 19 | 0 | 0.0 | 0.0 | 0.00 | 0.03 | 0.03 | 88 | 1011.8 |
| 20260507013535 | 19 | 0 | 0.0 | 0.0 | 0.00 | 0.03 | 0.03 | 88 | 1011.7 |
| 20260507013058 | 19 | 0 | 0.0 | 0.0 | 0.00 | 0.03 | 0.03 | 88 | 1011.5 |
| 20260507012529 | 19 | 0 | 0.0 | 0.0 | 0.00 | 0.03 | 0.03 | 87 | 1011.4 |
| 20260507012032 | 19 | 0 | 0.0 | 0.0 | 0.00 | 0.03 | 0.03 | 87 | 1011.3 |
| 20260507011547 | 20 | 0 | 0.0 | 0.0 | 0.00 | 0.03 | 0.03 | 87 | 1011.4 |
| 20260507011033 | 20 | 0 | 0.0 | 0.0 | 0.00 | 0.03 | 0.03 | 86 | 1011.7 |
| 20260507010532 | 20 | 0 | 0.0 | 0.0 | 0.00 | 0.03 | 0.03 | 86 | 1011.6 |
| 20260507010054 | 20 | 0 | 0.0 | 0.0 | 0.00 | 0.03 | 0.03 | 86 | 1011.6 |
| 20260507005529 | 20 | 0 | 0.0 | 0.0 | 0.00 | 0.03 | 0.03 | 85 | 1011.4 |
| 20260507005030 | 20 | 0 | 0.0 | 0.0 | 0.00 | 0.03 | 0.03 | 85 | 1011.2 |
| 20260507004546 | 20 | 0 | 0.0 | 0.0 | 0.00 | 0.03 | 0.03 | 85 | 1011.2 |
| 20260507004031 | 20 | 0 | 0.0 | 1.6 | 0.00 | 0.03 | 0.03 | 85 | 1011.3 |
| 20260507003533 | 20 | 0 | 0.0 | 1.6 | 0.00 | 0.03 | 0.03 | 85 | 1011.6 |
| 20260507003043 | 20 | 0 | 0.0 | 1.6 | 0.00 | 0.03 | 0.03 | 84 | 1011.5 |
| 20260507002531 | 20 | 0 | 0.0 | 1.6 | 0.00 | 0.03 | 0.03 | 84 | 1011.6 |
| 20260507002030 | 21 | 0 | 0.0 | 1.6 | 0.00 | 0.03 | 0.03 | 84 | 1011.6 |
| 20260507001547 | 21 | 0 | 0.0 | 0.0 | 0.00 | 0.03 | 0.03 | 83 | 1011.7 |
| 20260507001031 | 21 | 0 | 0.0 | 0.0 | 0.00 | 0.03 | 0.03 | 83 | 1011.7 |
| 20260507000532 | 21 | 0 | 0.0 | 0.0 | 0.00 | 0.03 | 0.03 | 82 | 1011.9 |
| 20260507000040 | 21 | 0 | 0.0 | 1.6 | 0.00 | 0.03 | 0.03 | 82 | 1011.8 |
| 20260506235532 | 21 | 0 | 0.0 | 1.6 | 0.00 | 0.03 | 0.03 | 82 | 1011.8 |
| 20260506235031 | 21 | 0 | 0.0 | 4.8 | 0.00 | 0.03 | 0.03 | 81 | 1011.6 |
| 20260506234611 | 21 | 0 | 0.0 | 4.8 | 0.00 | 0.03 | 0.03 | 81 | 1011.5 |
| 20260506234244 | 21 | 0 | 0.0 | 3.2 | 0.00 | 0.03 | 0.03 | 81 | 1011.5 |
| 20260506233535 | 22 | 0 | 0.0 | 3.2 | 0.00 | 0.03 | 0.03 | 80 | 1011.3 |
| 20260506233100 | 22 | 0 | 0.0 | 1.6 | 0.00 | 0.03 | 0.03 | 80 | 1011.1 |
| 20260506232532 | 22 | 352 | 0.0 | 3.2 | 0.00 | 0.03 | 0.03 | 79 | 1011.1 |
| 20260506232034 | 22 | 0 | 0.0 | 8.0 | 0.00 | 0.03 | 0.03 | 79 | 1011.0 |
| 20260506231543 | 22 | 0 | 1.6 | 8.0 | 0.00 | 0.03 | 0.03 | 79 | 1010.9 |
| 20260506231035 | 22 | 0 | 0.0 | 8.0 | 0.00 | 0.03 | 0.03 | 79 | 1011.0 |
| 20260506230533 | 22 | 0 | 0.0 | 4.8 | 0.00 | 0.03 | 0.03 | 79 | 1011.0 |
| 20260506230047 | 22 | 0 | 0.0 | 4.8 | 0.00 | 0.03 | 0.03 | 79 | 1010.8 |
| 20260506225535 | 22 | 125 | 0.0 | 3.2 | 0.00 | 0.03 | 0.03 | 79 | 1010.9 |
| 20260506225039 | 22 | 217 | 0.0 | 4.8 | 0.00 | 0.03 | 0.03 | 79 | 1010.9 |
| 20260506224547 | 22 | 0 | 0.0 | 4.8 | 0.00 | 0.03 | 0.03 | 78 | 1010.8 |
| 20260506224032 | 22 | 0 | 0.0 | 3.2 | 0.00 | 0.03 | 0.03 | 78 | 1010.9 |
| 20260506223536 | 22 | 0 | 0.0 | 4.8 | 0.00 | 0.03 | 0.03 | 79 | 1011.0 |
| 20260506223047 | 22 | 258 | 0.0 | 4.8 | 0.00 | 0.03 | 0.03 | 78 | 1010.9 |
| 20260506222533 | 22 | 208 | 0.0 | 4.8 | 0.00 | 0.03 | 0.03 | 78 | 1011.1 |
| 20260506222035 | 22 | 0 | 0.0 | 12.9 | 0.00 | 0.03 | 0.03 | 78 | 1010.9 |
| 20260506221553 | 22 | 30 | 1.6 | 12.9 | 0.00 | 0.03 | 0.03 | 77 | 1010.9 |
| 20260506221032 | 22 | 65 | 0.0 | 6.4 | 0.00 | 0.03 | 0.03 | 77 | 1010.9 |
| 20260506220536 | 23 | 0 | 1.6 | 8.0 | 0.00 | 0.03 | 0.03 | 76 | 1010.8 |
| 20260506220046 | 23 | 227 | 1.6 | 14.5 | 0.00 | 0.03 | 0.03 | 76 | 1010.8 |
| 20260506215533 | 23 | 0 | 0.0 | 14.5 | 0.00 | 0.03 | 0.03 | 77 | 1010.9 |
| 20260506215033 | 23 | 0 | 1.6 | 9.7 | 0.00 | 0.03 | 0.03 | 76 | 1010.9 |
| 20260506214553 | 23 | 211 | 1.6 | 9.7 | 0.00 | 0.03 | 0.03 | 77 | 1011.0 |
| 20260506214033 | 22 | 0 | 1.6 | 9.7 | 0.00 | 0.03 | 0.03 | 76 | 1011.1 |
| 20260506213534 | 22 | 0 | 1.6 | 9.7 | 0.00 | 0.03 | 0.03 | 77 | 1011.2 |
| 20260506213040 | 22 | 0 | 0.0 | 9.7 | 0.00 | 0.03 | 0.03 | 77 | 1011.1 |
| 20260506212534 | 22 | 210 | 1.6 | 9.7 | 0.00 | 0.03 | 0.03 | 77 | 1011.1 |
| 20260506212035 | 22 | 0 | 0.0 | 12.9 | 0.00 | 0.03 | 0.03 | 77 | 1010.9 |
| 20260506211551 | 22 | 227 | 1.6 | 12.9 | 0.00 | 0.03 | 0.03 | 77 | 1010.8 |
| 20260506211034 | 22 | 44 | 1.6 | 16.1 | 0.00 | 0.03 | 0.03 | 76 | 1010.8 |
| 20260506210533 | 22 | 0 | 1.6 | 16.1 | 0.00 | 0.03 | 0.03 | 77 | 1010.8 |
| 20260506210112 | 22 | 255 | 1.6 | 9.7 | 0.00 | 0.03 | 0.03 | 77 | 1010.7 |
| 20260506205535 | 22 | 227 | 1.6 | 8.0 | 0.00 | 0.03 | 0.03 | 78 | 1010.8 |
| 20260506205032 | 22 | 162 | 0.0 | 8.0 | 0.00 | 0.03 | 0.03 | 79 | 1010.7 |
| 20260506204546 | 22 | 0 | 0.0 | 4.8 | 0.00 | 0.03 | 0.03 | 79 | 1010.8 |
| 20260506204031 | 22 | 165 | 0.0 | 6.4 | 0.00 | 0.03 | 0.03 | 79 | 1010.9 |